Flight Track Log - Related Links

Times and Time Zones

All times are in EDT time to prevent confusion due to time zone crossing. See the UAL4401 flight status page for this flight to view local times or setup timezone preferences in your user account.

Time Position Orientation Groundspeed Altitude Reporting Facility
EDT Latitude Longitude Course Direction KTS MPH feet Rate Location/Type
Fri 08:32:00 PM 29.9098 -94.7836 95° East  Level FlightAware Approximate
Fri 08:33:00 PM 29.8976 -94.6452 97° East  Level FlightAware Approximate
Fri 08:34:00 PM 29.8824 -94.5072 97° East  Level FlightAware Approximate
Fri 08:35:00 PM 29.8670 -94.3692 97° East  Level FlightAware Approximate
Fri 08:36:00 PM 29.8500 -94.2354 90° East  Level FlightAware Approximate
Fri 08:37:00 PM 29.8500 -94.0963 90° East  Level FlightAware Approximate
Fri 08:38:00 PM 29.8607 -93.9583 81° East  Level FlightAware Approximate
Fri 08:39:00 PM 29.8725 -93.8202 82° East  Level FlightAware Approximate
Fri 08:40:00 PM 29.8833 -93.6820 90° East  Level FlightAware Approximate
Fri 08:41:00 PM 29.8959 -93.5439 82° East  Level FlightAware Approximate
Fri 08:42:00 PM 29.9121 -93.4061 82° East  Level FlightAware Approximate
Fri 08:43:00 PM 29.9195 -93.2676 78° East  Level FlightAware Approximate
Fri 08:44:00 PM 29.9443 -93.1314 78° East  Level FlightAware Approximate
Fri 08:45:00 PM 29.9589 -92.9934 84° East  Level FlightAware Approximate
Fri 08:46:00 PM 29.9667 -92.8546 90° East  Level FlightAware Approximate
Fri 08:47:00 PM 29.9739 -92.7161 81° East  Level FlightAware Approximate
Fri 08:48:00 PM 29.9874 -92.5780 85° East  Level FlightAware Approximate
Fri 08:49:00 PM 29.9976 -92.4392 85° East  Level FlightAware Approximate
Fri 08:50:00 PM 30.0076 -92.3004 85° East  Level FlightAware Approximate
Fri 08:51:00 PM 30.0174 -92.1616 85° East  Level FlightAware Approximate
Fri 08:52:00 PM 30.0271 -92.0228 85° East  Level FlightAware Approximate
Fri 08:53:00 PM 30.0367 -91.8839 85° East  Level FlightAware Approximate
Fri 08:54:00 PM 30.0461 -91.7450 85° East  Level FlightAware Approximate
Fri 08:55:00 PM 30.0553 -91.6061 86° East  Level FlightAware Approximate
Fri 08:56:00 PM 30.0645 -91.4672 86° East  Level FlightAware Approximate
Fri 08:57:00 PM 30.0741 -91.3283 85° East  Level FlightAware Approximate
Fri 08:58:00 PM 30.0837 -91.1893 85° East  Level FlightAware Approximate
Fri 08:59:00 PM 30.0932 -91.0504 85° East  Level FlightAware Approximate
Fri 09:00:00 PM 30.1093 -90.9128 74° East  Level FlightAware Approximate
Fri 09:01:00 PM 30.1429 -90.7789 74° East  Level FlightAware Approximate
Fri 09:02:00 PM 30.1763 -90.6449 74° East  Level FlightAware Approximate
Fri 09:03:00 PM 30.2098 -90.5108 74° East  Level FlightAware Approximate
Fri 09:04:00 PM 30.2432 -90.3767 74° East  Level FlightAware Approximate
Fri 09:05:00 PM 30.2764 -90.2425 74° East  Level FlightAware Approximate
Fri 09:06:00 PM 30.3095 -90.1082 74° East  Level FlightAware Approximate
Fri 09:07:00 PM 30.3425 -89.9738 74° East  Level FlightAware Approximate
Fri 09:08:00 PM 30.3753 -89.8393 74° East  Level FlightAware Approximate
Fri 09:09:00 PM 30.4080 -89.7047 74° East  Level FlightAware Approximate
Fri 09:10:00 PM 30.4403 -89.5700 75° East  Level FlightAware Approximate
Fri 09:11:00 PM 30.4715 -89.4349 75° East  Level FlightAware Approximate
Fri 09:12:00 PM 30.5027 -89.2996 75° East  Level FlightAware Approximate
Fri 09:13:00 PM 30.5336 -89.1643 75° East  Level FlightAware Approximate
Fri 09:14:00 PM 30.5645 -89.0290 75° East  Level FlightAware Approximate
Fri 09:15:00 PM 30.5951 -88.8935 75° East  Level FlightAware Approximate
Fri 09:16:00 PM 30.6257 -88.7579 75° East  Level FlightAware Approximate
Fri 09:17:00 PM 30.6561 -88.6223 75° East  Level FlightAware Approximate
Fri 09:18:00 PM 30.6864 -88.4865 75° East  Level FlightAware Approximate
Fri 09:19:00 PM 30.7165 -88.3507 76° East  Level FlightAware Approximate
Fri 09:20:00 PM 30.7959 -88.2452 49° Northeast  Level FlightAware Approximate
Fri 09:21:00 PM 30.8755 -88.1397 49° Northeast  Level FlightAware Approximate
Fri 09:22:00 PM 30.9550 -88.0340 49° Northeast  Level FlightAware Approximate
Fri 09:23:00 PM 31.0344 -87.9281 49° Northeast  Level FlightAware Approximate
Fri 09:24:00 PM 31.1137 -87.8220 49° Northeast  Level FlightAware Approximate
Fri 09:25:00 PM 31.1929 -87.7158 49° Northeast  Level FlightAware Approximate
Fri 09:26:00 PM 31.2717 -87.6090 52° Northeast  Level FlightAware Approximate
Fri 09:27:00 PM 31.3468 -87.4986 49° Northeast  Level FlightAware Approximate
Fri 09:28:00 PM 31.4262 -87.3923 49° Northeast  Level FlightAware Approximate
Fri 09:29:00 PM 31.5055 -87.2857 49° Northeast  Level FlightAware Approximate
Fri 09:30:00 PM 31.5847 -87.1790 49° Northeast  Level FlightAware Approximate
Fri 09:31:00 PM 31.6638 -87.0721 49° Northeast  Level FlightAware Approximate
Fri 09:32:00 PM 31.7429 -86.9651 49° Northeast  Level FlightAware Approximate
Fri 09:33:00 PM 31.8218 -86.8578 49° Northeast  Level FlightAware Approximate
Fri 09:34:00 PM 31.9007 -86.7504 49° Northeast  Level FlightAware Approximate
Fri 09:35:00 PM 31.9794 -86.6427 49° Northeast  Level FlightAware Approximate
Fri 09:36:00 PM 32.0581 -86.5349 49° Northeast  Level FlightAware Approximate
Fri 09:37:00 PM 32.1367 -86.4269 49° Northeast  Level FlightAware Approximate
Fri 09:38:00 PM 32.2151 -86.3188 49° Northeast  Level FlightAware Approximate
Fri 09:39:00 PM 32.2899 -86.2068 52° Northeast  Level FlightAware Approximate
Fri 09:40:00 PM 32.3647 -86.0949 52° Northeast  Level FlightAware Approximate
Fri 09:41:00 PM 32.4395 -85.9828 52° Northeast  Level FlightAware Approximate
Fri 09:42:00 PM 32.5142 -85.8706 52° Northeast  Level FlightAware Approximate
Fri 09:43:00 PM 32.5888 -85.7582 52° Northeast  Level FlightAware Approximate
Fri 09:44:00 PM 32.6633 -85.6456 52° Northeast  Level FlightAware Approximate
Fri 09:45:00 PM 32.7377 -85.5328 52° Northeast  Level FlightAware Approximate
Fri 09:46:00 PM 32.8120 -85.4198 52° Northeast  Level FlightAware Approximate
Fri 09:47:00 PM 32.8862 -85.3067 52° Northeast  Level FlightAware Approximate
Fri 09:48:00 PM 32.9603 -85.1933 52° Northeast  Level FlightAware Approximate
Fri 09:49:00 PM 33.0343 -85.0798 52° Northeast  Level FlightAware Approximate
Fri 09:50:00 PM 33.1082 -84.9660 52° Northeast  Level FlightAware Approximate
Fri 09:51:00 PM 33.1820 -84.8521 52° Northeast  Level FlightAware Approximate
Fri 09:52:00 PM 33.2569 -84.7391 52° Northeast  Level FlightAware Approximate
Fri 09:53:00 PM 33.3318 -84.6260 52° Northeast  Level FlightAware Approximate
Fri 09:54:00 PM 33.4065 -84.5127 52° Northeast  Level FlightAware Approximate
Fri 09:55:00 PM 33.4812 -84.3991 52° Northeast  Level FlightAware Approximate
Fri 09:56:00 PM 33.5557 -84.2854 52° Northeast  Level FlightAware Approximate
Fri 09:57:00 PM 33.6302 -84.1715 52° Northeast  Level FlightAware Approximate
Fri 09:58:00 PM 33.7028 -84.0559 53° Northeast  Level FlightAware Approximate
Fri 09:59:00 PM 33.7753 -83.9400 53° Northeast  Level FlightAware Approximate
Fri 10:00:00 PM 33.8477 -83.8239 53° Northeast  Level FlightAware Approximate
Fri 10:01:00 PM 33.9208 -83.7083 52° Northeast  Level FlightAware Approximate
Fri 10:02:00 PM 33.9945 -83.5932 52° Northeast  Level FlightAware Approximate
Fri 10:03:00 PM 34.0680 -83.4779 52° Northeast  Level FlightAware Approximate
Fri 10:04:00 PM 34.1415 -83.3624 52° Northeast  Level FlightAware Approximate
Fri 10:05:00 PM 34.2149 -83.2467 52° Northeast  Level FlightAware Approximate
Fri 10:06:00 PM 34.2881 -83.1308 53° Northeast  Level FlightAware Approximate
Fri 10:07:00 PM 34.3613 -83.0147 53° Northeast  Level FlightAware Approximate
Fri 10:08:00 PM 34.4343 -82.8984 53° Northeast  Level FlightAware Approximate
Fri 10:09:00 PM 34.5066 -82.7813 53° Northeast  Level FlightAware Approximate
Fri 10:10:00 PM 34.5788 -82.6640 53° Northeast  Level FlightAware Approximate
Fri 10:11:00 PM 34.6509 -82.5466 53° Northeast  Level FlightAware Approximate
Fri 10:12:00 PM 34.7229 -82.4289 53° Northeast  Level FlightAware Approximate
Fri 10:13:00 PM 34.7947 -82.3110 53° Northeast  Level FlightAware Approximate
Fri 10:14:00 PM 34.8665 -82.1929 53° Northeast  Level FlightAware Approximate
Fri 10:15:00 PM 34.9381 -82.0746 54° Northeast  Level FlightAware Approximate
Fri 10:16:00 PM 35.0096 -81.9561 54° Northeast  Level FlightAware Approximate
Fri 10:17:00 PM 35.0754 -81.8328 58° Northeast  Level FlightAware Approximate
Fri 10:18:00 PM 35.1383 -81.7070 59° Northeast  Level FlightAware Approximate
Fri 10:19:00 PM 35.2012 -81.5811 58° Northeast  Level FlightAware Approximate
Fri 10:20:00 PM 35.2642 -81.4552 58° Northeast  Level FlightAware Approximate
Fri 10:21:00 PM 35.3271 -81.3291 59° Northeast  Level FlightAware Approximate
Fri 10:22:00 PM 35.3931 -81.2053 57° Northeast  Level FlightAware Approximate
Fri 10:23:00 PM 35.4593 -81.0816 57° Northeast  Level FlightAware Approximate
Fri 10:24:00 PM 35.5253 -80.9577 57° Northeast  Level FlightAware Approximate
Fri 10:25:00 PM 35.5912 -80.8335 57° Northeast  Level FlightAware Approximate
Fri 10:26:00 PM 35.6570 -80.7092 57° Northeast  Level FlightAware Approximate
Fri 10:27:00 PM 35.7227 -80.5846 57° Northeast  Level FlightAware Approximate
Fri 10:28:00 PM 35.7882 -80.4599 57° Northeast  Level FlightAware Approximate
Fri 10:29:00 PM 35.8536 -80.3349 57° Northeast  Level FlightAware Approximate
Fri 10:30:00 PM 35.9189 -80.2098 57° Northeast  Level FlightAware Approximate
Fri 10:31:00 PM 35.9809 -80.0821 61° Northeast  Level FlightAware Approximate
Fri 10:32:00 PM 36.0416 -79.9534 52° Northeast  Level FlightAware Approximate
Fri 10:33:00 PM 36.1154 -79.8354 52° Northeast  Level FlightAware Approximate
Fri 10:34:00 PM 36.1841 -79.7126 55° Northeast  Level FlightAware Approximate
Fri 10:35:00 PM 36.2525 -79.5895 55° Northeast  Level FlightAware Approximate
Fri 10:36:00 PM 36.3209 -79.4662 55° Northeast  Level FlightAware Approximate
Fri 10:37:00 PM 36.3876 -79.3416 58° Northeast  Level FlightAware Approximate
Fri 10:38:00 PM 36.4596 -79.2322 56° Northeast  Level FlightAware Approximate
Fri 10:39:00 PM 36.5267 -79.1076 56° Northeast  Level FlightAware Approximate
Fri 10:40:00 PM 36.5936 -78.9827 56° Northeast  Level FlightAware Approximate
Fri 10:41:00 PM 36.6604 -78.8576 56° Northeast  Level FlightAware Approximate
Fri 10:42:00 PM 36.7260 -78.7314 58° Northeast  Level FlightAware Approximate
Fri 10:43:00 PM 36.7904 -78.6041 55° Northeast  Level FlightAware Approximate
Fri 10:44:00 PM 36.8592 -78.4804 55° Northeast  Level FlightAware Approximate
Fri 10:45:00 PM 36.9280 -78.3565 55° Northeast  Level FlightAware Approximate
Fri 10:46:00 PM 37.0030 -78.2394 53° Northeast  Level FlightAware Approximate
Fri 10:47:00 PM 37.0975 -78.1474 34° Northeast  Level FlightAware Approximate
Fri 10:48:00 PM 37.1989 -78.0656 32° Northeast  Level FlightAware Approximate
Fri 10:49:00 PM 37.3013 -77.9856 32° Northeast  Level FlightAware Approximate
Fri 10:50:00 PM 37.4037 -77.9055 32° Northeast  Level FlightAware Approximate
Fri 10:51:00 PM 37.5060 -77.8251 32° Northeast  Level FlightAware Approximate
Fri 10:52:00 PM 37.6161 -77.7632 23° Northeast  Level FlightAware Approximate
Fri 10:53:00 PM 37.7270 -77.7034 23° Northeast  Level FlightAware Approximate
Fri 10:54:00 PM 37.8340 -77.6333 North  Level FlightAware Approximate
Fri 10:55:00 PM 37.9420 -77.5715 25° Northeast  Level FlightAware Approximate
Fri 10:56:00 PM 38.0537 -77.5139 31° Northeast  Level FlightAware Approximate
Fri 10:57:00 PM 38.1608 -77.4446 21° North  Level FlightAware Approximate
Fri 10:58:00 PM 38.2688 -77.3764 28° Northeast  Level FlightAware Approximate
Fri 10:59:00 PM 38.3850 -77.3500 North  Level FlightAware Approximate
Fri 11:00:00 PM 38.5056 -77.3500 North  Level FlightAware Approximate
Fri 11:01:00 PM 38.6262 -77.3500 North  Level FlightAware Approximate

Login

Don't have an account? Register now (free) for customized features, flight alerts, and more!